Time,TemperatureF,DewpointF,PressureIn,WindDirection,WindDirectionDegrees,WindSpeedMPH,WindSpeedGustMPH,Humidity,HourlyPrecipIn,Conditions,Clouds,dailyrainin,SolarRadiationWatts/m^2,SoftwareType,DateUTC
2013-09-25 00:09:00,54.4,41.0,29.84,SE,140,3.0,5.0,60,0.00,,,0.00,0,weatherlink.com 1.10,2013-09-25 05:09:00,
2013-09-25 00:24:00,54.5,41.0,29.83,ESE,115,7.0,7.0,61,0.00,,,0.00,0,weatherlink.com 1.10,2013-09-25 05:24:00,
2013-09-25 00:39:00,56.0,42.0,29.83,SE,135,0.0,6.0,59,0.00,,,0.00,0,weatherlink.com 1.10,2013-09-25 05:39:00,
2013-09-25 00:54:00,55.8,42.0,29.83,SE,139,0.0,6.0,60,0.00,,,0.00,0,weatherlink.com 1.10,2013-09-25 05:54:00,
2013-09-25 01:09:00,56.2,42.0,29.82,SE,128,0.0,6.0,59,0.00,,,0.00,0,weatherlink.com 1.10,2013-09-25 06:09:00,
2013-09-25 01:25:00,55.9,42.0,29.82,SE,131,0.0,6.0,61,0.00,,,0.00,0,weatherlink.com 1.10,2013-09-25 06:25:00,
2013-09-25 01:40:00,54.7,43.0,29.81,ESE,113,0.0,5.0,64,0.00,,,0.00,0,weatherlink.com 1.10,2013-09-25 06:40:00,
2013-09-25 01:55:00,53.7,43.0,29.81,ESE,121,2.0,6.0,67,0.00,,,0.00,0,weatherlink.com 1.10,2013-09-25 06:55:00,
2013-09-25 02:10:00,53.6,43.0,29.81,SE,146,0.0,7.0,68,0.00,,,0.00,0,weatherlink.com 1.10,2013-09-25 07:10:00,
2013-09-25 02:25:00,54.1,44.0,29.81,SE,132,5.0,7.0,69,0.00,,,0.00,0,weatherlink.com 1.10,2013-09-25 07:25:00,
2013-09-25 02:40:00,53.7,44.0,29.81,SE,131,0.0,6.0,71,0.00,,,0.00,0,weatherlink.com 1.10,2013-09-25 07:40:00,
2013-09-25 02:55:00,53.0,45.0,29.80,ESE,121,0.0,5.0,73,0.00,,,0.00,0,weatherlink.com 1.10,2013-09-25 07:55:00,
2013-09-25 03:10:00,53.5,46.0,29.80,SE,140,0.0,5.0,75,0.00,,,0.00,0,weatherlink.com 1.10,2013-09-25 08:10:00,
2013-09-25 03:25:00,54.6,47.0,29.79,South,170,0.0,7.0,75,0.00,,,0.00,0,weatherlink.com 1.10,2013-09-25 08:25:00,
2013-09-25 03:40:00,54.2,47.0,29.79,SSE,153,4.0,8.0,76,0.00,,,0.00,0,weatherlink.com 1.10,2013-09-25 08:40:00,
2013-09-25 03:55:00,54.2,47.0,29.79,SSE,163,0.0,8.0,78,0.00,,,0.00,0,weatherlink.com 1.10,2013-09-25 08:55:00,
2013-09-25 04:10:00,53.6,47.0,29.78,SSE,151,0.0,6.0,79,0.00,,,0.00,0,weatherlink.com 1.10,2013-09-25 09:10:00,
2013-09-25 04:25:00,53.0,47.0,29.78,ESE,119,0.0,6.0,80,0.00,,,0.00,0,weatherlink.com 1.10,2013-09-25 09:25:00,
2013-09-25 04:40:00,52.9,48.0,29.77,SSE,148,0.0,6.0,83,0.00,,,0.00,0,weatherlink.com 1.10,2013-09-25 09:40:00,
2013-09-25 04:55:00,53.6,48.0,29.77,SE,137,7.0,7.0,82,0.00,,,0.00,0,weatherlink.com 1.10,2013-09-25 09:55:00,
2013-09-25 05:10:00,53.8,48.0,29.77,South,173,2.0,9.0,81,0.00,,,0.00,0,weatherlink.com 1.10,2013-09-25 10:10:00,
2013-09-25 05:25:00,53.4,48.0,29.76,South,178,0.0,8.0,83,0.00,,,0.00,0,weatherlink.com 1.10,2013-09-25 10:25:00,
2013-09-25 05:40:00,53.4,48.0,29.76,South,181,0.0,8.0,83,0.00,,,0.00,0,weatherlink.com 1.10,2013-09-25 10:40:00,
2013-09-25 05:55:00,52.8,48.0,29.76,South,184,0.0,8.0,84,0.00,,,0.00,0,weatherlink.com 1.10,2013-09-25 10:55:00,
2013-09-25 06:10:00,53.3,49.0,29.75,South,169,2.0,9.0,84,0.00,,,0.00,0,weatherlink.com 1.10,2013-09-25 11:10:00,
2013-09-25 06:25:00,53.3,49.0,29.75,South,171,0.0,10.0,84,0.00,,,0.00,0,weatherlink.com 1.10,2013-09-25 11:25:00,
2013-09-25 06:40:00,53.9,49.0,29.75,South,176,3.0,10.0,84,0.00,,,0.00,0,weatherlink.com 1.10,2013-09-25 11:40:00,
2013-09-25 06:55:00,53.9,49.0,29.75,SE,139,1.0,11.0,84,0.00,,,0.00,0,weatherlink.com 1.10,2013-09-25 11:55:00,
2013-09-25 07:10:00,54.1,49.0,29.74,SE,140,9.0,11.0,83,0.00,,,0.00,0,weatherlink.com 1.10,2013-09-25 12:10:00,
2013-09-25 07:25:00,53.9,49.0,29.74,SE,142,3.0,9.0,83,0.00,,,0.00,0,weatherlink.com 1.10,2013-09-25 12:25:00,
2013-09-25 07:40:00,53.5,49.0,29.74,SSE,161,0.0,9.0,84,0.00,,,0.00,7,weatherlink.com 1.10,2013-09-25 12:40:00,
2013-09-25 07:55:00,54.1,49.0,29.73,SE,141,3.0,13.0,83,0.00,,,0.00,16,weatherlink.com 1.10,2013-09-25 12:55:00,
2013-09-25 08:10:00,55.3,50.0,29.72,SE,141,7.0,13.0,82,0.00,,,0.00,40,weatherlink.com 1.10,2013-09-25 13:10:00,
2013-09-25 08:25:00,56.5,50.0,29.72,South,173,4.0,21.0,80,0.00,,,0.00,84,weatherlink.com 1.10,2013-09-25 13:25:00,
2013-09-25 08:40:00,57.6,51.0,29.71,SSE,149,6.0,21.0,78,0.00,,,0.00,142,weatherlink.com 1.10,2013-09-25 13:40:00,
2013-09-25 08:56:00,58.2,51.0,29.71,SE,135,2.0,16.0,77,0.00,,,0.00,199,weatherlink.com 1.10,2013-09-25 13:56:00,
2013-09-25 09:11:00,59.5,52.0,29.70,ESE,119,11.0,19.0,75,0.00,,,0.00,246,weatherlink.com 1.10,2013-09-25 14:11:00,
2013-09-25 09:26:00,61.3,52.0,29.69,ESE,121,8.0,24.0,72,0.00,,,0.00,292,weatherlink.com 1.10,2013-09-25 14:26:00,
2013-09-25 09:41:00,63.0,52.0,29.69,SE,144,15.0,31.0,68,0.00,,,0.00,339,weatherlink.com 1.10,2013-09-25 14:41:00,
2013-09-25 09:56:00,64.3,52.0,29.69,SSE,162,3.0,27.0,64,0.00,,,0.00,383,weatherlink.com 1.10,2013-09-25 14:56:00,
2013-09-25 10:11:00,65.3,51.0,29.68,SE,126,8.0,23.0,61,0.00,,,0.00,427,weatherlink.com 1.10,2013-09-25 15:11:00,
2013-09-25 10:26:00,66.8,51.0,29.69,SE,142,6.0,22.0,57,0.00,,,0.00,468,weatherlink.com 1.10,2013-09-25 15:26:00,
2013-09-25 10:41:00,68.5,51.0,29.69,South,182,6.0,29.0,53,0.00,,,0.00,503,weatherlink.com 1.10,2013-09-25 15:41:00,
2013-09-25 10:56:00,69.2,50.0,29.68,South,175,14.0,23.0,51,0.00,,,0.00,540,weatherlink.com 1.10,2013-09-25 15:56:00,
2013-09-25 11:11:00,70.7,50.0,29.67,SSE,148,12.0,21.0,49,0.00,,,0.00,570,weatherlink.com 1.10,2013-09-25 16:11:00,
2013-09-25 11:26:00,72.1,51.0,29.66,SSE,154,10.0,21.0,47,0.00,,,0.00,606,weatherlink.com 1.10,2013-09-25 16:26:00,
2013-09-25 11:41:00,72.4,51.0,29.65,SE,134,8.0,23.0,47,0.00,,,0.00,640,weatherlink.com 1.10,2013-09-25 16:41:00,
2013-09-25 11:56:00,73.2,51.0,29.63,SE,138,10.0,27.0,46,0.00,,,0.00,668,weatherlink.com 1.10,2013-09-25 16:56:00,
2013-09-25 12:11:00,74.8,52.0,29.62,ENE,62,9.0,22.0,45,0.00,,,0.00,693,weatherlink.com 1.10,2013-09-25 17:11:00,
2013-09-25 12:27:00,75.6,51.0,29.62,SSE,161,17.0,27.0,43,0.00,,,0.00,712,weatherlink.com 1.10,2013-09-25 17:27:00,
2013-09-25 12:42:00,76.2,52.0,29.61,ESE,109,18.0,24.0,43,0.00,,,0.00,724,weatherlink.com 1.10,2013-09-25 17:42:00,
2013-09-25 12:57:00,76.4,52.0,29.59,SE,146,5.0,24.0,42,0.00,,,0.00,737,weatherlink.com 1.10,2013-09-25 17:57:00,
2013-09-25 13:12:00,76.7,52.0,29.59,South,171,13.0,24.0,42,0.00,,,0.00,744,weatherlink.com 1.10,2013-09-25 18:12:00,
2013-09-25 13:27:00,77.8,53.0,29.58,SSE,158,9.0,23.0,42,0.00,,,0.00,751,weatherlink.com 1.10,2013-09-25 18:27:00,
2013-09-25 13:42:00,78.4,52.0,29.57,South,179,6.0,27.0,40,0.00,,,0.00,745,weatherlink.com 1.10,2013-09-25 18:42:00,
2013-09-25 13:57:00,79.7,52.0,29.56,SSE,157,6.0,25.0,38,0.00,,,0.00,742,weatherlink.com 1.10,2013-09-25 18:57:00,
2013-09-25 14:12:00,80.3,52.0,29.56,South,191,13.0,24.0,38,0.00,,,0.00,740,weatherlink.com 1.10,2013-09-25 19:12:00,
2013-09-25 14:27:00,81.2,51.0,29.55,SSE,158,15.0,24.0,35,0.00,,,0.00,726,weatherlink.com 1.10,2013-09-25 19:27:00,
2013-09-25 14:42:00,82.3,50.0,29.53,South,184,17.0,27.0,32,0.00,,,0.00,712,weatherlink.com 1.10,2013-09-25 19:42:00,
2013-09-25 14:57:00,82.9,50.0,29.52,SSE,153,7.0,21.0,32,0.00,,,0.00,693,weatherlink.com 1.10,2013-09-25 19:57:00,
2013-09-25 15:12:00,83.7,51.0,29.51,ESE,122,8.0,23.0,32,0.00,,,0.00,670,weatherlink.com 1.10,2013-09-25 20:12:00,
2013-09-25 15:27:00,84.6,50.0,29.50,South,190,11.0,23.0,30,0.00,,,0.00,647,weatherlink.com 1.10,2013-09-25 20:27:00,
2013-09-25 15:42:00,85.0,48.0,29.50,South,171,10.0,25.0,28,0.00,,,0.00,619,weatherlink.com 1.10,2013-09-25 20:42:00,
2013-09-25 15:57:00,85.9,49.0,29.48,ESE,108,4.0,24.0,28,0.00,,,0.00,587,weatherlink.com 1.10,2013-09-25 20:57:00,
2013-09-25 16:12:00,86.1,49.0,29.47,SE,132,5.0,24.0,28,0.00,,,0.00,555,weatherlink.com 1.10,2013-09-25 21:12:00,
2013-09-25 16:27:00,86.4,49.0,29.46,South,179,19.0,24.0,27,0.00,,,0.00,517,weatherlink.com 1.10,2013-09-25 21:27:00,
2013-09-25 16:42:00,86.9,49.0,29.45,SE,142,6.0,25.0,27,0.00,,,0.00,466,weatherlink.com 1.10,2013-09-25 21:42:00,
2013-09-25 16:57:00,87.0,48.0,29.44,SSW,197,8.0,25.0,26,0.00,,,0.00,431,weatherlink.com 1.10,2013-09-25 21:57:00,
2013-09-25 17:12:00,87.5,48.0,29.43,South,170,13.0,27.0,25,0.00,,,0.00,388,weatherlink.com 1.10,2013-09-25 22:12:00,
2013-09-25 17:27:00,87.2,49.0,29.42,SSE,147,14.0,26.0,27,0.00,,,0.00,338,weatherlink.com 1.10,2013-09-25 22:27:00,
2013-09-25 17:43:00,86.8,48.0,29.41,South,174,17.0,27.0,26,0.00,,,0.00,290,weatherlink.com 1.10,2013-09-25 22:43:00,
2013-09-25 17:58:00,86.6,48.0,29.41,South,173,20.0,27.0,26,0.00,,,0.00,241,weatherlink.com 1.10,2013-09-25 22:58:00,
2013-09-25 18:13:00,86.4,49.0,29.41,SE,130,7.0,22.0,27,0.00,,,0.00,190,weatherlink.com 1.10,2013-09-25 23:13:00,
2013-09-25 18:28:00,86.0,48.0,29.41,South,184,3.0,27.0,27,0.00,,,0.00,135,weatherlink.com 1.10,2013-09-25 23:28:00,
2013-09-25 18:43:00,85.4,49.0,29.41,SSE,148,6.0,20.0,28,0.00,,,0.00,90,weatherlink.com 1.10,2013-09-25 23:43:00,
2013-09-25 18:58:00,84.3,49.0,29.42,South,182,7.0,17.0,29,0.00,,,0.00,49,weatherlink.com 1.10,2013-09-25 23:58:00,
2013-09-25 19:13:00,83.4,49.0,29.42,SE,141,7.0,16.0,30,0.00,,,0.00,25,weatherlink.com 1.10,2013-09-26 00:13:00,
2013-09-25 19:28:00,82.3,49.0,29.42,SSE,165,2.0,15.0,31,0.00,,,0.00,11,weatherlink.com 1.10,2013-09-26 00:28:00,
2013-09-25 19:43:00,80.5,49.0,29.41,ESE,109,1.0,10.0,33,0.00,,,0.00,0,weatherlink.com 1.10,2013-09-26 00:43:00,
2013-09-25 19:58:00,79.0,49.0,29.41,SSE,165,3.0,10.0,35,0.00,,,0.00,0,weatherlink.com 1.10,2013-09-26 00:58:00,
2013-09-25 20:13:00,79.0,47.0,29.40,South,181,1.0,14.0,33,0.00,,,0.00,0,weatherlink.com 1.10,2013-09-26 01:13:00,
2013-09-25 20:28:00,79.6,47.0,29.40,South,184,2.0,18.0,32,0.00,,,0.00,0,weatherlink.com 1.10,2013-09-26 01:28:00,
2013-09-25 20:43:00,78.7,47.0,29.41,SSE,167,8.0,12.0,33,0.00,,,0.00,0,weatherlink.com 1.10,2013-09-26 01:43:00,
2013-09-25 20:58:00,77.2,47.0,29.41,SE,130,13.0,27.0,35,0.00,,,0.00,0,weatherlink.com 1.10,2013-09-26 01:58:00,
2013-09-25 21:13:00,76.1,47.0,29.42,ESE,116,12.0,13.0,36,0.00,,,0.00,0,weatherlink.com 1.10,2013-09-26 02:13:00,
2013-09-25 21:28:00,73.3,48.0,29.43,ESE,107,1.0,11.0,41,0.00,,,0.00,0,weatherlink.com 1.10,2013-09-26 02:28:00,
2013-09-25 21:43:00,70.7,49.0,29.43,SE,129,1.0,11.0,46,0.00,,,0.00,0,weatherlink.com 1.10,2013-09-26 02:43:00,
2013-09-25 21:58:00,70.3,49.0,29.43,ESE,117,1.0,13.0,47,0.00,,,0.00,0,weatherlink.com 1.10,2013-09-26 02:58:00,
2013-09-25 22:13:00,68.8,49.0,29.43,ESE,105,0.0,7.0,49,0.00,,,0.00,0,weatherlink.com 1.10,2013-09-26 03:13:00,
2013-09-25 22:28:00,69.9,49.0,29.43,ESE,119,5.0,13.0,47,0.00,,,0.00,0,weatherlink.com 1.10,2013-09-26 03:28:00,
2013-09-25 22:43:00,71.3,50.0,29.43,SE,144,5.0,13.0,47,0.00,,,0.00,0,weatherlink.com 1.10,2013-09-26 03:43:00,
2013-09-25 22:58:00,71.9,50.0,29.42,SSE,151,7.0,16.0,47,0.00,,,0.00,0,weatherlink.com 1.10,2013-09-26 03:58:00,
2013-09-25 23:13:00,72.2,51.0,29.42,South,169,2.0,17.0,47,0.00,,,0.00,0,weatherlink.com 1.10,2013-09-26 04:13:00,
2013-09-25 23:28:00,72.0,51.0,29.42,South,170,5.0,18.0,48,0.00,,,0.00,0,weatherlink.com 1.10,2013-09-26 04:28:00,
2013-09-25 23:43:00,72.1,51.0,29.41,South,171,2.0,18.0,47,0.00,,,0.00,0,weatherlink.com 1.10,2013-09-26 04:43:00,
2013-09-25 23:58:00,71.7,51.0,29.42,South,175,1.0,17.0,48,0.00,,,0.00,0,weatherlink.com 1.10,2013-09-26 04:58:00,